sensor_id;sensor_type;location;lat;lon;timestamp;P1;durP1;ratioP1;P2;durP2;ratioP2
7761;SDS011;3925;48.636;9.516;2023-04-03T00:00:19;4.20;;;3.80;;
7761;SDS011;3925;48.636;9.516;2023-04-03T00:02:46;3.10;;;2.90;;
7761;SDS011;3925;48.636;9.516;2023-04-03T00:05:13;4.53;;;4.13;;
7761;SDS011;3925;48.636;9.516;2023-04-03T00:07:40;2.90;;;2.60;;
7761;SDS011;3925;48.636;9.516;2023-04-03T00:10:09;3.47;;;3.13;;
7761;SDS011;3925;48.636;9.516;2023-04-03T00:12:36;3.43;;;3.20;;
7761;SDS011;3925;48.636;9.516;2023-04-03T00:15:03;3.50;;;3.20;;
7761;SDS011;3925;48.636;9.516;2023-04-03T00:17:30;3.73;;;3.53;;
7761;SDS011;3925;48.636;9.516;2023-04-03T00:19:57;3.20;;;2.90;;
7761;SDS011;3925;48.636;9.516;2023-04-03T00:22:24;3.97;;;3.60;;
7761;SDS011;3925;48.636;9.516;2023-04-03T00:24:51;3.73;;;3.43;;
7761;SDS011;3925;48.636;9.516;2023-04-03T00:27:20;3.73;;;3.10;;
7761;SDS011;3925;48.636;9.516;2023-04-03T00:29:46;3.67;;;3.37;;
7761;SDS011;3925;48.636;9.516;2023-04-03T00:32:14;3.40;;;3.10;;
7761;SDS011;3925;48.636;9.516;2023-04-03T00:34:40;6.03;;;3.53;;
7761;SDS011;3925;48.636;9.516;2023-04-03T00:37:07;3.63;;;3.33;;
7761;SDS011;3925;48.636;9.516;2023-04-03T00:39:34;3.87;;;3.57;;
7761;SDS011;3925;48.636;9.516;2023-04-03T00:42:01;3.53;;;3.23;;
7761;SDS011;3925;48.636;9.516;2023-04-03T00:47:33;3.73;;;2.97;;
7761;SDS011;3925;48.636;9.516;2023-04-03T00:50:00;3.83;;;3.53;;
7761;SDS011;3925;48.636;9.516;2023-04-03T00:52:28;3.60;;;3.23;;
7761;SDS011;3925;48.636;9.516;2023-04-03T00:54:58;3.77;;;3.47;;
7761;SDS011;3925;48.636;9.516;2023-04-03T00:57:28;3.87;;;3.50;;
7761;SDS011;3925;48.636;9.516;2023-04-03T00:59:57;3.40;;;3.10;;
7761;SDS011;3925;48.636;9.516;2023-04-03T01:02:30;3.50;;;3.20;;
7761;SDS011;3925;48.636;9.516;2023-04-03T01:04:58;3.97;;;3.57;;
7761;SDS011;3925;48.636;9.516;2023-04-03T01:07:28;3.30;;;3.00;;
7761;SDS011;3925;48.636;9.516;2023-04-03T01:09:57;3.90;;;3.50;;
7761;SDS011;3925;48.636;9.516;2023-04-03T01:12:26;4.00;;;3.70;;
7761;SDS011;3925;48.636;9.516;2023-04-03T01:14:54;4.40;;;4.00;;
7761;SDS011;3925;48.636;9.516;2023-04-03T01:17:29;4.40;;;3.60;;
7761;SDS011;3925;48.636;9.516;2023-04-03T01:20:08;3.83;;;3.30;;
7761;SDS011;3925;48.636;9.516;2023-04-03T01:23:03;3.50;;;3.30;;
7761;SDS011;3925;48.636;9.516;2023-04-03T01:25:39;3.17;;;2.97;;
7761;SDS011;3925;48.636;9.516;2023-04-03T01:28:07;4.03;;;3.60;;
7761;SDS011;3925;48.636;9.516;2023-04-03T01:30:37;3.00;;;2.70;;
7761;SDS011;3925;48.636;9.516;2023-04-03T01:33:10;3.33;;;3.03;;
7761;SDS011;3925;48.636;9.516;2023-04-03T01:35:37;4.90;;;3.60;;
7761;SDS011;3925;48.636;9.516;2023-04-03T01:38:04;3.73;;;3.37;;
7761;SDS011;3925;48.636;9.516;2023-04-03T01:40:31;3.50;;;3.20;;
7761;SDS011;3925;48.636;9.516;2023-04-03T01:42:58;2.63;;;2.43;;
7761;SDS011;3925;48.636;9.516;2023-04-03T01:45:25;3.60;;;3.30;;
7761;SDS011;3925;48.636;9.516;2023-04-03T01:47:52;3.33;;;3.03;;
7761;SDS011;3925;48.636;9.516;2023-04-03T01:50:20;4.50;;;3.30;;
7761;SDS011;3925;48.636;9.516;2023-04-03T01:52:47;5.67;;;3.63;;
7761;SDS011;3925;48.636;9.516;2023-04-03T01:55:14;3.43;;;3.00;;
7761;SDS011;3925;48.636;9.516;2023-04-03T01:57:41;3.33;;;2.83;;
7761;SDS011;3925;48.636;9.516;2023-04-03T02:00:08;2.93;;;2.70;;
7761;SDS011;3925;48.636;9.516;2023-04-03T02:02:36;3.90;;;3.57;;
7761;SDS011;3925;48.636;9.516;2023-04-03T02:05:03;4.00;;;3.33;;
7761;SDS011;3925;48.636;9.516;2023-04-03T02:07:31;3.73;;;3.23;;
7761;SDS011;3925;48.636;9.516;2023-04-03T02:09:58;3.43;;;3.13;;
7761;SDS011;3925;48.636;9.516;2023-04-03T02:12:25;3.70;;;3.27;;
7761;SDS011;3925;48.636;9.516;2023-04-03T02:14:52;3.33;;;3.03;;
7761;SDS011;3925;48.636;9.516;2023-04-03T02:17:18;3.37;;;3.00;;
7761;SDS011;3925;48.636;9.516;2023-04-03T02:19:45;3.10;;;2.90;;
7761;SDS011;3925;48.636;9.516;2023-04-03T02:22:12;3.87;;;3.50;;
7761;SDS011;3925;48.636;9.516;2023-04-03T02:24:40;4.80;;;4.30;;
7761;SDS011;3925;48.636;9.516;2023-04-03T02:27:07;3.40;;;3.10;;
7761;SDS011;3925;48.636;9.516;2023-04-03T02:29:34;3.07;;;2.87;;
7761;SDS011;3925;48.636;9.516;2023-04-03T02:32:01;4.40;;;4.10;;
7761;SDS011;3925;48.636;9.516;2023-04-03T02:34:27;3.77;;;3.20;;
7761;SDS011;3925;48.636;9.516;2023-04-03T02:36:54;3.50;;;3.20;;
7761;SDS011;3925;48.636;9.516;2023-04-03T02:39:21;3.47;;;3.17;;
7761;SDS011;3925;48.636;9.516;2023-04-03T02:41:49;4.83;;;3.80;;
7761;SDS011;3925;48.636;9.516;2023-04-03T02:44:16;4.00;;;3.53;;
7761;SDS011;3925;48.636;9.516;2023-04-03T02:46:43;3.97;;;2.83;;
7761;SDS011;3925;48.636;9.516;2023-04-03T02:49:10;4.30;;;3.90;;
7761;SDS011;3925;48.636;9.516;2023-04-03T02:51:37;3.97;;;3.40;;
7761;SDS011;3925;48.636;9.516;2023-04-03T02:54:04;3.40;;;3.10;;
7761;SDS011;3925;48.636;9.516;2023-04-03T02:56:31;4.20;;;3.57;;
7761;SDS011;3925;48.636;9.516;2023-04-03T02:59:00;3.80;;;3.50;;
7761;SDS011;3925;48.636;9.516;2023-04-03T03:01:26;3.60;;;3.30;;
7761;SDS011;3925;48.636;9.516;2023-04-03T03:03:56;3.17;;;2.90;;
7761;SDS011;3925;48.636;9.516;2023-04-03T03:06:23;4.00;;;3.53;;
7761;SDS011;3925;48.636;9.516;2023-04-03T03:08:50;3.43;;;3.00;;
7761;SDS011;3925;48.636;9.516;2023-04-03T03:11:17;3.70;;;3.37;;
7761;SDS011;3925;48.636;9.516;2023-04-03T03:13:44;3.60;;;3.30;;
7761;SDS011;3925;48.636;9.516;2023-04-03T03:16:13;3.30;;;3.00;;
7761;SDS011;3925;48.636;9.516;2023-04-03T03:18:39;3.07;;;2.70;;
7761;SDS011;3925;48.636;9.516;2023-04-03T03:21:06;3.70;;;3.40;;
7761;SDS011;3925;48.636;9.516;2023-04-03T03:23:35;5.37;;;2.97;;
7761;SDS011;3925;48.636;9.516;2023-04-03T03:26:03;3.00;;;2.77;;
7761;SDS011;3925;48.636;9.516;2023-04-03T03:28:31;3.93;;;2.93;;
7761;SDS011;3925;48.636;9.516;2023-04-03T03:30:58;7.83;;;3.07;;
7761;SDS011;3925;48.636;9.516;2023-04-03T03:33:27;3.50;;;3.20;;
7761;SDS011;3925;48.636;9.516;2023-04-03T03:35:54;3.33;;;3.03;;
7761;SDS011;3925;48.636;9.516;2023-04-03T03:38:21;3.33;;;3.07;;
7761;SDS011;3925;48.636;9.516;2023-04-03T03:40:49;3.63;;;3.00;;
7761;SDS011;3925;48.636;9.516;2023-04-03T03:43:17;3.27;;;2.97;;
7761;SDS011;3925;48.636;9.516;2023-04-03T03:45:45;3.80;;;3.20;;
7761;SDS011;3925;48.636;9.516;2023-04-03T03:48:16;2.57;;;2.37;;
7761;SDS011;3925;48.636;9.516;2023-04-03T03:50:44;4.50;;;3.13;;
7761;SDS011;3925;48.636;9.516;2023-04-03T03:53:10;2.70;;;2.50;;
7761;SDS011;3925;48.636;9.516;2023-04-03T03:55:37;3.07;;;2.87;;
7761;SDS011;3925;48.636;9.516;2023-04-03T03:58:04;2.80;;;2.57;;
7761;SDS011;3925;48.636;9.516;2023-04-03T04:00:31;3.00;;;2.67;;
7761;SDS011;3925;48.636;9.516;2023-04-03T04:02:58;2.67;;;2.50;;
7761;SDS011;3925;48.636;9.516;2023-04-03T04:05:25;3.77;;;3.40;;
7761;SDS011;3925;48.636;9.516;2023-04-03T04:07:54;2.57;;;2.37;;
7761;SDS011;3925;48.636;9.516;2023-04-03T04:10:20;3.53;;;3.23;;
7761;SDS011;3925;48.636;9.516;2023-04-03T04:12:48;6.67;;;2.90;;
7761;SDS011;3925;48.636;9.516;2023-04-03T04:15:16;4.83;;;3.10;;
7761;SDS011;3925;48.636;9.516;2023-04-03T04:17:43;2.90;;;2.70;;
7761;SDS011;3925;48.636;9.516;2023-04-03T04:20:10;3.17;;;2.90;;
7761;SDS011;3925;48.636;9.516;2023-04-03T04:22:37;3.17;;;2.93;;
7761;SDS011;3925;48.636;9.516;2023-04-03T04:25:06;3.00;;;2.80;;
7761;SDS011;3925;48.636;9.516;2023-04-03T04:27:34;3.77;;;3.47;;
7761;SDS011;3925;48.636;9.516;2023-04-03T04:30:02;2.53;;;2.33;;
7761;SDS011;3925;48.636;9.516;2023-04-03T04:32:29;2.33;;;2.20;;
7761;SDS011;3925;48.636;9.516;2023-04-03T04:34:56;3.60;;;3.40;;
7761;SDS011;3925;48.636;9.516;2023-04-03T04:37:23;3.27;;;2.70;;
7761;SDS011;3925;48.636;9.516;2023-04-03T04:39:50;2.73;;;2.53;;
7761;SDS011;3925;48.636;9.516;2023-04-03T04:42:18;2.90;;;2.40;;
7761;SDS011;3925;48.636;9.516;2023-04-03T04:44:45;3.87;;;2.67;;
7761;SDS011;3925;48.636;9.516;2023-04-03T04:47:11;3.83;;;2.63;;
7761;SDS011;3925;48.636;9.516;2023-04-03T04:49:38;2.70;;;2.50;;
7761;SDS011;3925;48.636;9.516;2023-04-03T04:52:05;2.43;;;2.23;;
7761;SDS011;3925;48.636;9.516;2023-04-03T04:54:32;2.93;;;2.70;;
7761;SDS011;3925;48.636;9.516;2023-04-03T04:56:59;3.80;;;2.90;;
7761;SDS011;3925;48.636;9.516;2023-04-03T04:59:27;2.60;;;2.40;;
7761;SDS011;3925;48.636;9.516;2023-04-03T05:01:54;5.63;;;2.40;;
7761;SDS011;3925;48.636;9.516;2023-04-03T05:04:21;2.80;;;2.60;;
7761;SDS011;3925;48.636;9.516;2023-04-03T05:06:48;3.67;;;2.70;;
7761;SDS011;3925;48.636;9.516;2023-04-03T05:09:14;4.17;;;2.90;;
7761;SDS011;3925;48.636;9.516;2023-04-03T05:11:42;2.40;;;2.23;;
7761;SDS011;3925;48.636;9.516;2023-04-03T05:14:09;2.60;;;2.40;;
7761;SDS011;3925;48.636;9.516;2023-04-03T05:16:37;2.60;;;2.40;;
7761;SDS011;3925;48.636;9.516;2023-04-03T05:19:04;3.07;;;2.77;;
7761;SDS011;3925;48.636;9.516;2023-04-03T05:21:31;2.70;;;2.50;;
7761;SDS011;3925;48.636;9.516;2023-04-03T05:23:58;2.70;;;2.50;;
7761;SDS011;3925;48.636;9.516;2023-04-03T05:26:27;3.40;;;3.07;;
7761;SDS011;3925;48.636;9.516;2023-04-03T05:28:54;3.10;;;2.37;;
7761;SDS011;3925;48.636;9.516;2023-04-03T05:31:21;2.87;;;2.67;;
7761;SDS011;3925;48.636;9.516;2023-04-03T05:33:49;2.33;;;2.13;;
7761;SDS011;3925;48.636;9.516;2023-04-03T05:36:16;2.63;;;2.43;;
7761;SDS011;3925;48.636;9.516;2023-04-03T05:38:43;2.80;;;2.60;;
7761;SDS011;3925;48.636;9.516;2023-04-03T05:41:10;3.07;;;2.80;;
7761;SDS011;3925;48.636;9.516;2023-04-03T05:43:37;5.00;;;2.53;;
7761;SDS011;3925;48.636;9.516;2023-04-03T05:46:04;3.10;;;2.53;;
7761;SDS011;3925;48.636;9.516;2023-04-03T05:48:35;2.40;;;2.20;;
7761;SDS011;3925;48.636;9.516;2023-04-03T05:51:04;3.47;;;3.20;;
7761;SDS011;3925;48.636;9.516;2023-04-03T05:53:31;3.03;;;2.83;;
7761;SDS011;3925;48.636;9.516;2023-04-03T05:56:00;2.83;;;2.63;;
7761;SDS011;3925;48.636;9.516;2023-04-03T05:58:27;3.03;;;2.70;;
7761;SDS011;3925;48.636;9.516;2023-04-03T06:00:54;2.83;;;2.53;;
7761;SDS011;3925;48.636;9.516;2023-04-03T06:03:21;3.83;;;2.37;;
7761;SDS011;3925;48.636;9.516;2023-04-03T06:05:48;2.30;;;2.20;;
7761;SDS011;3925;48.636;9.516;2023-04-03T06:08:16;2.53;;;2.40;;
7761;SDS011;3925;48.636;9.516;2023-04-03T06:10:43;3.00;;;2.70;;
7761;SDS011;3925;48.636;9.516;2023-04-03T06:13:10;3.77;;;2.67;;
7761;SDS011;3925;48.636;9.516;2023-04-03T06:15:37;2.83;;;2.53;;
7761;SDS011;3925;48.636;9.516;2023-04-03T06:18:04;2.37;;;2.17;;
7761;SDS011;3925;48.636;9.516;2023-04-03T06:20:31;2.80;;;2.50;;
7761;SDS011;3925;48.636;9.516;2023-04-03T06:22:58;2.40;;;2.30;;
7761;SDS011;3925;48.636;9.516;2023-04-03T06:25:26;3.00;;;2.80;;
7761;SDS011;3925;48.636;9.516;2023-04-03T06:27:53;3.13;;;2.10;;
7761;SDS011;3925;48.636;9.516;2023-04-03T06:30:21;3.03;;;2.27;;
7761;SDS011;3925;48.636;9.516;2023-04-03T06:32:48;2.57;;;2.43;;
7761;SDS011;3925;48.636;9.516;2023-04-03T06:35:15;3.30;;;2.20;;
7761;SDS011;3925;48.636;9.516;2023-04-03T06:37:42;4.13;;;2.40;;
7761;SDS011;3925;48.636;9.516;2023-04-03T06:40:10;3.03;;;2.80;;
7761;SDS011;3925;48.636;9.516;2023-04-03T06:42:46;3.07;;;2.30;;
7761;SDS011;3925;48.636;9.516;2023-04-03T06:45:13;2.50;;;2.30;;
7761;SDS011;3925;48.636;9.516;2023-04-03T06:47:40;3.63;;;3.33;;
7761;SDS011;3925;48.636;9.516;2023-04-03T06:50:08;5.13;;;2.60;;
7761;SDS011;3925;48.636;9.516;2023-04-03T06:52:36;2.47;;;2.27;;
7761;SDS011;3925;48.636;9.516;2023-04-03T06:55:05;2.63;;;2.47;;
7761;SDS011;3925;48.636;9.516;2023-04-03T06:57:32;2.23;;;2.10;;
7761;SDS011;3925;48.636;9.516;2023-04-03T07:00:00;2.80;;;2.60;;
7761;SDS011;3925;48.636;9.516;2023-04-03T07:02:28;3.40;;;3.10;;
7761;SDS011;3925;48.636;9.516;2023-04-03T07:04:55;2.80;;;2.40;;
7761;SDS011;3925;48.636;9.516;2023-04-03T07:07:22;7.93;;;2.40;;
7761;SDS011;3925;48.636;9.516;2023-04-03T07:09:49;3.13;;;2.27;;
7761;SDS011;3925;48.636;9.516;2023-04-03T07:12:16;2.40;;;2.20;;
7761;SDS011;3925;48.636;9.516;2023-04-03T07:14:43;3.37;;;2.27;;
7761;SDS011;3925;48.636;9.516;2023-04-03T07:17:11;2.33;;;2.13;;
7761;SDS011;3925;48.636;9.516;2023-04-03T07:19:38;2.90;;;2.70;;
7761;SDS011;3925;48.636;9.516;2023-04-03T07:22:05;2.07;;;1.87;;
7761;SDS011;3925;48.636;9.516;2023-04-03T07:24:32;2.10;;;2.00;;
7761;SDS011;3925;48.636;9.516;2023-04-03T07:27:00;2.40;;;2.20;;
7761;SDS011;3925;48.636;9.516;2023-04-03T07:29:27;2.63;;;2.43;;
7761;SDS011;3925;48.636;9.516;2023-04-03T07:31:55;2.90;;;2.60;;
7761;SDS011;3925;48.636;9.516;2023-04-03T07:34:23;2.63;;;2.43;;
7761;SDS011;3925;48.636;9.516;2023-04-03T07:36:50;3.23;;;2.40;;
7761;SDS011;3925;48.636;9.516;2023-04-03T07:39:17;2.10;;;2.00;;
7761;SDS011;3925;48.636;9.516;2023-04-03T07:41:44;2.83;;;2.63;;
7761;SDS011;3925;48.636;9.516;2023-04-03T07:44:11;2.93;;;2.50;;
7761;SDS011;3925;48.636;9.516;2023-04-03T07:46:38;2.83;;;2.27;;
7761;SDS011;3925;48.636;9.516;2023-04-03T07:49:05;2.80;;;2.20;;
7761;SDS011;3925;48.636;9.516;2023-04-03T07:51:33;2.57;;;2.37;;
7761;SDS011;3925;48.636;9.516;2023-04-03T07:54:00;5.40;;;2.33;;
7761;SDS011;3925;48.636;9.516;2023-04-03T07:56:27;2.07;;;1.97;;
7761;SDS011;3925;48.636;9.516;2023-04-03T07:58:54;3.23;;;2.40;;
7761;SDS011;3925;48.636;9.516;2023-04-03T08:01:21;3.20;;;2.30;;
7761;SDS011;3925;48.636;9.516;2023-04-03T08:03:48;4.27;;;1.80;;
7761;SDS011;3925;48.636;9.516;2023-04-03T08:06:15;6.73;;;3.20;;
7761;SDS011;3925;48.636;9.516;2023-04-03T08:08:44;1.70;;;1.60;;
7761;SDS011;3925;48.636;9.516;2023-04-03T08:11:11;2.23;;;2.10;;
7761;SDS011;3925;48.636;9.516;2023-04-03T08:13:38;3.30;;;1.90;;
7761;SDS011;3925;48.636;9.516;2023-04-03T08:16:07;4.50;;;2.47;;
7761;SDS011;3925;48.636;9.516;2023-04-03T08:18:36;8.60;;;2.57;;
7761;SDS011;3925;48.636;9.516;2023-04-03T08:21:07;2.60;;;2.30;;
7761;SDS011;3925;48.636;9.516;2023-04-03T08:23:34;2.13;;;1.90;;
7761;SDS011;3925;48.636;9.516;2023-04-03T08:26:06;2.90;;;1.93;;
7761;SDS011;3925;48.636;9.516;2023-04-03T08:28:35;5.23;;;2.50;;
7761;SDS011;3925;48.636;9.516;2023-04-03T08:31:02;3.57;;;2.10;;
7761;SDS011;3925;48.636;9.516;2023-04-03T08:33:31;2.87;;;2.10;;
7761;SDS011;3925;48.636;9.516;2023-04-03T08:36:00;3.57;;;2.20;;
7761;SDS011;3925;48.636;9.516;2023-04-03T08:38:28;3.30;;;2.00;;
7761;SDS011;3925;48.636;9.516;2023-04-03T08:41:04;3.13;;;2.33;;
7761;SDS011;3925;48.636;9.516;2023-04-03T08:43:42;5.63;;;2.90;;
7761;SDS011;3925;48.636;9.516;2023-04-03T08:46:20;2.63;;;2.43;;
7761;SDS011;3925;48.636;9.516;2023-04-03T08:48:51;3.03;;;2.70;;
7761;SDS011;3925;48.636;9.516;2023-04-03T08:51:20;2.30;;;2.13;;
7761;SDS011;3925;48.636;9.516;2023-04-03T08:53:51;5.47;;;3.10;;
7761;SDS011;3925;48.636;9.516;2023-04-03T08:56:24;2.90;;;2.33;;
7761;SDS011;3925;48.636;9.516;2023-04-03T08:58:52;2.77;;;2.13;;
7761;SDS011;3925;48.636;9.516;2023-04-03T09:01:23;2.47;;;2.27;;
7761;SDS011;3925;48.636;9.516;2023-04-03T09:03:53;6.57;;;3.40;;
7761;SDS011;3925;48.636;9.516;2023-04-03T09:06:21;3.37;;;3.03;;
7761;SDS011;3925;48.636;9.516;2023-04-03T09:08:53;2.73;;;2.53;;
7761;SDS011;3925;48.636;9.516;2023-04-03T09:11:33;3.27;;;2.30;;
7761;SDS011;3925;48.636;9.516;2023-04-03T09:14:09;3.83;;;2.63;;
7761;SDS011;3925;48.636;9.516;2023-04-03T09:16:43;3.50;;;2.23;;
7761;SDS011;3925;48.636;9.516;2023-04-03T09:19:18;2.00;;;1.87;;
7761;SDS011;3925;48.636;9.516;2023-04-03T09:21:56;3.47;;;2.40;;
7761;SDS011;3925;48.636;9.516;2023-04-03T09:24:23;2.70;;;2.33;;
7761;SDS011;3925;48.636;9.516;2023-04-03T09:26:53;2.23;;;2.13;;
7761;SDS011;3925;48.636;9.516;2023-04-03T09:29:24;2.30;;;2.20;;
7761;SDS011;3925;48.636;9.516;2023-04-03T09:31:52;2.83;;;2.33;;
7761;SDS011;3925;48.636;9.516;2023-04-03T09:34:23;2.50;;;2.13;;
7761;SDS011;3925;48.636;9.516;2023-04-03T09:36:54;2.50;;;2.30;;
7761;SDS011;3925;48.636;9.516;2023-04-03T09:39:23;2.97;;;2.70;;
7761;SDS011;3925;48.636;9.516;2023-04-03T09:41:58;3.17;;;2.00;;
7761;SDS011;3925;48.636;9.516;2023-04-03T09:44:27;2.10;;;2.00;;
7761;SDS011;3925;48.636;9.516;2023-04-03T09:46:55;2.40;;;2.27;;
7761;SDS011;3925;48.636;9.516;2023-04-03T09:49:22;4.83;;;2.03;;
7761;SDS011;3925;48.636;9.516;2023-04-03T09:51:49;2.17;;;1.50;;
7761;SDS011;3925;48.636;9.516;2023-04-03T09:54:30;1.90;;;1.80;;
7761;SDS011;3925;48.636;9.516;2023-04-03T09:57:10;2.37;;;1.80;;
7761;SDS011;3925;48.636;9.516;2023-04-03T09:59:40;2.20;;;1.77;;
7761;SDS011;3925;48.636;9.516;2023-04-03T10:02:21;2.47;;;1.70;;
7761;SDS011;3925;48.636;9.516;2023-04-03T10:04:55;1.93;;;1.83;;
7761;SDS011;3925;48.636;9.516;2023-04-03T10:07:25;2.13;;;1.93;;
7761;SDS011;3925;48.636;9.516;2023-04-03T10:09:55;2.63;;;1.97;;
7761;SDS011;3925;48.636;9.516;2023-04-03T10:12:24;1.83;;;1.73;;
7761;SDS011;3925;48.636;9.516;2023-04-03T10:14:55;4.33;;;1.83;;
7761;SDS011;3925;48.636;9.516;2023-04-03T10:17:25;1.73;;;1.63;;
7761;SDS011;3925;48.636;9.516;2023-04-03T10:20:00;1.87;;;1.77;;
7761;SDS011;3925;48.636;9.516;2023-04-03T10:22:36;2.13;;;2.03;;
7761;SDS011;3925;48.636;9.516;2023-04-03T10:25:10;2.70;;;2.40;;
7761;SDS011;3925;48.636;9.516;2023-04-03T10:27:47;2.50;;;2.30;;
7761;SDS011;3925;48.636;9.516;2023-04-03T10:30:29;5.40;;;2.50;;
7761;SDS011;3925;48.636;9.516;2023-04-03T10:33:03;2.63;;;2.03;;
7761;SDS011;3925;48.636;9.516;2023-04-03T10:35:44;3.20;;;2.60;;
7761;SDS011;3925;48.636;9.516;2023-04-03T10:38:18;3.60;;;2.10;;
7761;SDS011;3925;48.636;9.516;2023-04-03T10:40:52;3.43;;;2.03;;
7761;SDS011;3925;48.636;9.516;2023-04-03T10:43:31;2.13;;;1.93;;
7761;SDS011;3925;48.636;9.516;2023-04-03T10:46:03;6.10;;;2.60;;
7761;SDS011;3925;48.636;9.516;2023-04-03T10:48:37;3.13;;;2.17;;
7761;SDS011;3925;48.636;9.516;2023-04-03T10:51:14;2.73;;;2.50;;
7761;SDS011;3925;48.636;9.516;2023-04-03T10:53:51;3.53;;;2.17;;
7761;SDS011;3925;48.636;9.516;2023-04-03T10:56:24;2.10;;;1.50;;
7761;SDS011;3925;48.636;9.516;2023-04-03T10:58:58;2.70;;;2.07;;
7761;SDS011;3925;48.636;9.516;2023-04-03T11:01:30;1.93;;;1.57;;
7761;SDS011;3925;48.636;9.516;2023-04-03T11:04:00;5.93;;;2.10;;
7761;SDS011;3925;48.636;9.516;2023-04-03T11:06:31;1.80;;;1.33;;
7761;SDS011;3925;48.636;9.516;2023-04-03T11:09:02;2.27;;;1.67;;
7761;SDS011;3925;48.636;9.516;2023-04-03T11:11:37;1.57;;;1.43;;
7761;SDS011;3925;48.636;9.516;2023-04-03T11:14:11;1.60;;;1.50;;
7761;SDS011;3925;48.636;9.516;2023-04-03T11:16:45;2.77;;;1.30;;
7761;SDS011;3925;48.636;9.516;2023-04-03T11:19:15;2.80;;;2.00;;
7761;SDS011;3925;48.636;9.516;2023-04-03T11:21:50;3.20;;;2.33;;
7761;SDS011;3925;48.636;9.516;2023-04-03T11:24:22;3.13;;;1.77;;
7761;SDS011;3925;48.636;9.516;2023-04-03T11:26:52;3.10;;;1.40;;
7761;SDS011;3925;48.636;9.516;2023-04-03T11:29:22;1.77;;;1.67;;
7761;SDS011;3925;48.636;9.516;2023-04-03T11:32:02;2.67;;;1.93;;
7761;SDS011;3925;48.636;9.516;2023-04-03T11:34:37;3.10;;;1.77;;
7761;SDS011;3925;48.636;9.516;2023-04-03T11:37:11;2.33;;;1.70;;
7761;SDS011;3925;48.636;9.516;2023-04-03T11:39:47;2.13;;;1.50;;
7761;SDS011;3925;48.636;9.516;2023-04-03T11:42:25;1.53;;;1.40;;
7761;SDS011;3925;48.636;9.516;2023-04-03T11:48:02;2.13;;;1.90;;
7761;SDS011;3925;48.636;9.516;2023-04-03T11:50:39;1.50;;;1.40;;
7761;SDS011;3925;48.636;9.516;2023-04-03T11:53:31;2.50;;;1.43;;
7761;SDS011;3925;48.636;9.516;2023-04-03T11:56:04;2.17;;;1.37;;
7761;SDS011;3925;48.636;9.516;2023-04-03T12:01:47;2.40;;;1.60;;
7761;SDS011;3925;48.636;9.516;2023-04-03T12:04:16;1.60;;;1.50;;
7761;SDS011;3925;48.636;9.516;2023-04-03T12:06:52;2.30;;;1.50;;
7761;SDS011;3925;48.636;9.516;2023-04-03T12:12:44;2.20;;;2.00;;
7761;SDS011;3925;48.636;9.516;2023-04-03T12:18:31;2.23;;;1.23;;
7761;SDS011;3925;48.636;9.516;2023-04-03T12:21:09;2.27;;;1.80;;
7761;SDS011;3925;48.636;9.516;2023-04-03T12:23:36;1.90;;;1.67;;
7761;SDS011;3925;48.636;9.516;2023-04-03T12:26:27;1.50;;;1.40;;
7761;SDS011;3925;48.636;9.516;2023-04-03T12:28:58;1.90;;;1.73;;
7761;SDS011;3925;48.636;9.516;2023-04-03T12:31:32;1.77;;;1.30;;
7761;SDS011;3925;48.636;9.516;2023-04-03T12:34:16;2.30;;;1.77;;
7761;SDS011;3925;48.636;9.516;2023-04-03T12:36:55;2.00;;;1.43;;
7761;SDS011;3925;48.636;9.516;2023-04-03T12:42:30;2.20;;;2.00;;
7761;SDS011;3925;48.636;9.516;2023-04-03T12:45:09;2.07;;;1.70;;
7761;SDS011;3925;48.636;9.516;2023-04-03T12:47:45;1.77;;;1.67;;
7761;SDS011;3925;48.636;9.516;2023-04-03T12:50:17;2.80;;;1.97;;
7761;SDS011;3925;48.636;9.516;2023-04-03T12:52:49;1.67;;;1.50;;
7761;SDS011;3925;48.636;9.516;2023-04-03T12:55:22;1.53;;;1.40;;
7761;SDS011;3925;48.636;9.516;2023-04-03T12:57:49;2.00;;;1.90;;
7761;SDS011;3925;48.636;9.516;2023-04-03T13:00:22;1.90;;;1.80;;
7761;SDS011;3925;48.636;9.516;2023-04-03T13:02:58;3.87;;;2.17;;
7761;SDS011;3925;48.636;9.516;2023-04-03T13:05:26;2.77;;;2.00;;
7761;SDS011;3925;48.636;9.516;2023-04-03T13:07:54;1.73;;;1.60;;
7761;SDS011;3925;48.636;9.516;2023-04-03T13:10:25;1.53;;;1.43;;
7761;SDS011;3925;48.636;9.516;2023-04-03T13:12:52;2.67;;;2.43;;
7761;SDS011;3925;48.636;9.516;2023-04-03T13:15:24;2.37;;;1.60;;
7761;SDS011;3925;48.636;9.516;2023-04-03T13:17:52;2.10;;;1.90;;
7761;SDS011;3925;48.636;9.516;2023-04-03T13:20:21;2.20;;;1.70;;
7761;SDS011;3925;48.636;9.516;2023-04-03T13:22:53;1.97;;;1.80;;
7761;SDS011;3925;48.636;9.516;2023-04-03T13:25:24;4.17;;;1.57;;
7761;SDS011;3925;48.636;9.516;2023-04-03T13:27:53;2.33;;;2.07;;
7761;SDS011;3925;48.636;9.516;2023-04-03T13:30:25;2.83;;;1.93;;
7761;SDS011;3925;48.636;9.516;2023-04-03T13:32:55;2.10;;;1.43;;
7761;SDS011;3925;48.636;9.516;2023-04-03T13:35:29;4.23;;;1.73;;
7761;SDS011;3925;48.636;9.516;2023-04-03T13:38:02;2.20;;;2.00;;
7761;SDS011;3925;48.636;9.516;2023-04-03T13:40:32;2.20;;;2.00;;
7761;SDS011;3925;48.636;9.516;2023-04-03T13:43:03;2.20;;;1.90;;
7761;SDS011;3925;48.636;9.516;2023-04-03T13:45:34;10.57;;;9.57;;
7761;SDS011;3925;48.636;9.516;2023-04-03T13:48:16;5.67;;;5.17;;
7761;SDS011;3925;48.636;9.516;2023-04-03T13:50:51;5.53;;;2.50;;
7761;SDS011;3925;48.636;9.516;2023-04-03T13:53:20;2.77;;;1.67;;
7761;SDS011;3925;48.636;9.516;2023-04-03T13:55:55;2.03;;;1.90;;
7761;SDS011;3925;48.636;9.516;2023-04-03T13:58:24;2.03;;;1.70;;
7761;SDS011;3925;48.636;9.516;2023-04-03T14:00:55;1.93;;;1.80;;
7761;SDS011;3925;48.636;9.516;2023-04-03T14:03:27;2.70;;;2.27;;
7761;SDS011;3925;48.636;9.516;2023-04-03T14:05:57;1.53;;;1.43;;
7761;SDS011;3925;48.636;9.516;2023-04-03T14:08:25;2.13;;;1.50;;
7761;SDS011;3925;48.636;9.516;2023-04-03T14:10:52;2.00;;;1.70;;
7761;SDS011;3925;48.636;9.516;2023-04-03T14:13:20;2.20;;;2.00;;
7761;SDS011;3925;48.636;9.516;2023-04-03T14:15:47;1.10;;;1.00;;
7761;SDS011;3925;48.636;9.516;2023-04-03T14:18:19;1.90;;;1.70;;
7761;SDS011;3925;48.636;9.516;2023-04-03T14:20:46;2.77;;;1.80;;
7761;SDS011;3925;48.636;9.516;2023-04-03T14:23:14;2.20;;;2.00;;
7761;SDS011;3925;48.636;9.516;2023-04-03T14:25:42;4.83;;;1.80;;
7761;SDS011;3925;48.636;9.516;2023-04-03T14:28:14;1.63;;;1.53;;
7761;SDS011;3925;48.636;9.516;2023-04-03T14:30:43;3.37;;;2.10;;
7761;SDS011;3925;48.636;9.516;2023-04-03T14:33:12;2.47;;;1.83;;
7761;SDS011;3925;48.636;9.516;2023-04-03T14:35:42;1.87;;;1.63;;
7761;SDS011;3925;48.636;9.516;2023-04-03T14:38:12;4.03;;;1.80;;
7761;SDS011;3925;48.636;9.516;2023-04-03T14:40:47;2.30;;;2.10;;
7761;SDS011;3925;48.636;9.516;2023-04-03T14:43:14;1.87;;;1.77;;
7761;SDS011;3925;48.636;9.516;2023-04-03T14:45:42;1.90;;;1.80;;
7761;SDS011;3925;48.636;9.516;2023-04-03T14:48:10;2.43;;;2.23;;
7761;SDS011;3925;48.636;9.516;2023-04-03T14:50:44;2.00;;;1.80;;
7761;SDS011;3925;48.636;9.516;2023-04-03T14:53:12;3.00;;;2.70;;
7761;SDS011;3925;48.636;9.516;2023-04-03T14:55:42;3.03;;;2.30;;
7761;SDS011;3925;48.636;9.516;2023-04-03T14:58:12;3.80;;;2.33;;
7761;SDS011;3925;48.636;9.516;2023-04-03T15:00:41;2.47;;;1.97;;
7761;SDS011;3925;48.636;9.516;2023-04-03T15:03:12;2.67;;;2.13;;
7761;SDS011;3925;48.636;9.516;2023-04-03T15:05:40;4.83;;;2.33;;
7761;SDS011;3925;48.636;9.516;2023-04-03T15:08:11;1.63;;;1.53;;
7761;SDS011;3925;48.636;9.516;2023-04-03T15:10:45;1.87;;;1.77;;
7761;SDS011;3925;48.636;9.516;2023-04-03T15:13:12;2.30;;;2.10;;
7761;SDS011;3925;48.636;9.516;2023-04-03T15:15:39;2.83;;;1.97;;
7761;SDS011;3925;48.636;9.516;2023-04-03T15:18:09;3.17;;;2.37;;
7761;SDS011;3925;48.636;9.516;2023-04-03T15:20:40;2.23;;;2.00;;
7761;SDS011;3925;48.636;9.516;2023-04-03T15:23:08;2.30;;;2.20;;
7761;SDS011;3925;48.636;9.516;2023-04-03T15:25:37;2.63;;;2.43;;
7761;SDS011;3925;48.636;9.516;2023-04-03T15:28:05;1.70;;;1.60;;
7761;SDS011;3925;48.636;9.516;2023-04-03T15:30:32;4.03;;;2.33;;
7761;SDS011;3925;48.636;9.516;2023-04-03T15:33:01;4.83;;;3.13;;
7761;SDS011;3925;48.636;9.516;2023-04-03T15:35:28;2.17;;;1.70;;
7761;SDS011;3925;48.636;9.516;2023-04-03T15:37:55;2.07;;;1.87;;
7761;SDS011;3925;48.636;9.516;2023-04-03T15:40:23;2.90;;;2.50;;
7761;SDS011;3925;48.636;9.516;2023-04-03T15:42:50;5.20;;;3.73;;
7761;SDS011;3925;48.636;9.516;2023-04-03T15:45:17;3.07;;;2.80;;
7761;SDS011;3925;48.636;9.516;2023-04-03T15:47:44;5.60;;;2.73;;